South Houston, TX

7:36 PM CDT on September 02, 2015 (GMT -0500)
Whitney Estates III | | Change Station
CLOSE
Current Station
Personal Weather Station
Location: Pasadena, TX
Elevation: 46 ft
Nearby Weather Stations

Elev 46 ft 29.66 °N, 95.17 °W | Updated 5 minutes ago

Partly Cloudy
Partly Cloudy
82.0 °F
Feels Like 88 °F
N
5.3
Wind Variable Wind from SW

Today
High -- | Low -- °F
--% Chance of Precip.
Yesterday
High -- | Low -- °F
Precip. -- in
6:58 AM 7:42 PM
Waning Gibbous, 76% visible
Pressure 29.95 in
Visibility 10.0 miles
Clouds Scattered Clouds 2600 ft
Scattered Clouds 13000 ft
Scattered Clouds 25000 ft
Heat Index 88 °F
Dew Point 74 °F
Humidity 77%
Rainfall 1.27 in
Snow Depth Not available.
UV 0 out of 12
Pollen 5.70 out of 12
Air Quality Not available.
Flu Activity Not available.
METAR KHOU 022353Z 10005KT 10SM SCT026 SCT130 SCT250 28/23 A2993 RMK AO2 SLP141 T02830228 10306 20283 55011
Pressure 29.95 in
Visibility 10.0 miles
Clouds Scattered Clouds 2600 ft
Scattered Clouds 13000 ft
Scattered Clouds 25000 ft
Heat Index 88 °F
Dew Point 74 °F
Humidity 77%
Rainfall 1.27 in
Snow Depth Not available.
UV 0 out of 12
Pollen 5.70 out of 12
Air Quality Not available.
Flu Activity Not available.
METAR KHOU 022353Z 10005KT 10SM SCT026 SCT130 SCT250 28/23 A2993 RMK AO2 SLP141 T02830228 10306 20283 55011

10-Day Weather Forecast

×

Almanac

Astronomy

Sep. 02, 2015 Rise Set
Actual Time
Civil Twilight
Nautical Twilight
Astronomical Twilight
Moon
Length of Visible Light
Length of Day
Tomorrow will be .
, % of the Moon is Illuminated

Today's Extremes

State Highs State Lows

Community

WunderPhotos

Upload Photos

1,851,853 photos uploaded!

WunderBlogs® & News

Nearby

Air Quality

  Air Quality AQ Index Pollutant
Not available.

Snow Depth

Station Depth Elevation

Earthquake Activity

City Distance Mag. Time & Date
Minimum magnitude displayed is 2.5.

Coastal Water Temperatures

Place Temperature

Stations

Nearby Weather Stations

Station Location Temp. Windchill Dew Point Humidity Wind Precip. Elev Updated Type